createdAt,value
2019-04-23T00:02:18.565Z,55.50
2019-04-23T00:04:46.854Z,55.50
2019-04-23T00:07:39.630Z,55.70
2019-04-23T00:09:57.143Z,55.70
2019-04-23T00:12:38.099Z,55.90
2019-04-23T00:15:08.968Z,55.80
2019-04-23T00:20:06.691Z,56.00
2019-04-23T00:22:45.379Z,56.20
2019-04-23T00:28:06.582Z,56.20
2019-04-23T00:30:36.484Z,56.50
2019-04-23T00:33:07.480Z,56.50
2019-04-23T00:35:35.026Z,56.40
2019-04-23T00:38:05.892Z,56.70
2019-04-23T00:43:09.201Z,56.60
2019-04-23T00:45:39.883Z,56.80
2019-04-23T00:48:15.429Z,56.90
2019-04-23T00:50:44.922Z,56.70
2019-04-23T00:53:10.966Z,56.60
2019-04-23T00:55:46.568Z,57.10
2019-04-23T01:00:47.341Z,56.90
2019-04-23T01:03:17.480Z,57.00
2019-04-23T01:05:50.280Z,57.00
2019-04-23T01:08:20.135Z,57.10
2019-04-23T01:10:56.250Z,57.30
2019-04-23T01:13:31.334Z,57.30
2019-04-23T01:20:57.005Z,57.60
2019-04-23T01:23:37.763Z,57.50
2019-04-23T01:26:21.274Z,57.50
2019-04-23T01:28:59.879Z,57.70
2019-04-23T01:31:28.662Z,57.90
2019-04-23T01:33:55.510Z,58.00
2019-04-23T01:36:25.607Z,57.90
2019-04-23T01:39:03.653Z,58.00
2019-04-23T01:43:55.207Z,57.90
2019-04-23T01:46:35.772Z,58.20
2019-04-23T01:49:20.685Z,58.10
2019-04-23T01:51:44.674Z,58.30
2019-04-23T01:54:01.788Z,58.50
2019-04-23T01:56:36.903Z,58.50
2019-04-23T01:59:05.151Z,58.30
2019-04-23T02:01:43.252Z,58.90
2019-04-23T02:04:14.681Z,58.70
2019-04-23T02:06:38.669Z,58.60
2019-04-23T02:09:12.731Z,58.60
2019-04-23T02:11:37.700Z,58.60
2019-04-23T02:14:14.799Z,58.60
2019-04-23T02:16:45.935Z,58.80
2019-04-23T02:19:19.663Z,59.00
2019-04-23T02:21:56.423Z,58.90
2019-04-23T02:24:20.959Z,59.00
2019-04-23T02:26:48.574Z,59.10
2019-04-23T02:29:39.857Z,59.10
2019-04-23T02:34:42.953Z,59.40
2019-04-23T02:37:00.002Z,59.40
2019-04-23T02:39:46.463Z,59.40
2019-04-23T02:44:36.624Z,59.80
2019-04-23T02:49:48.968Z,59.50
2019-04-23T02:52:27.405Z,60.00
2019-04-23T02:57:05.617Z,59.80
2019-04-23T02:59:57.788Z,59.70
2019-04-23T03:07:22.458Z,59.90
2019-04-23T03:09:55.665Z,60.00
2019-04-23T03:12:26.704Z,60.10
2019-04-23T03:15:11.020Z,60.40
2019-04-23T03:17:51.169Z,60.30
2019-04-23T03:20:21.367Z,60.30
2019-04-23T03:27:56.108Z,60.40
2019-04-23T03:30:42.329Z,60.50
2019-04-23T03:36:17.105Z,60.70
2019-04-23T03:40:34.844Z,61.00
2019-04-23T03:43:06.750Z,60.90
2019-04-23T03:45:58.893Z,61.20
2019-04-23T03:48:06.313Z,61.10
2019-04-23T03:50:39.545Z,61.00
2019-04-23T03:53:13.985Z,61.30
2019-04-23T03:55:45.939Z,61.30
2019-04-23T03:58:18.765Z,61.50
2019-04-23T04:03:42.172Z,61.30
2019-04-23T04:06:11.519Z,61.40
2019-04-23T04:08:18.369Z,61.50
2019-04-23T04:13:30.906Z,61.60
2019-04-23T04:21:01.097Z,61.50
2019-04-23T04:26:00.289Z,61.70
2019-04-23T04:30:58.458Z,62.00
2019-04-23T04:38:44.904Z,62.20
2019-04-23T04:48:46.496Z,62.50
2019-04-23T04:51:19.411Z,62.60
2019-04-23T04:53:50.540Z,62.60
2019-04-23T04:56:21.334Z,62.50
2019-04-23T04:58:47.444Z,62.80
2019-04-23T05:01:12.173Z,62.90
2019-04-23T05:08:52.557Z,63.20
2019-04-23T05:11:17.473Z,63.30
2019-04-23T05:13:57.766Z,63.40
2019-04-23T05:16:15.974Z,63.40
2019-04-23T05:18:59.625Z,63.60
2019-04-23T05:21:20.340Z,63.70
2019-04-23T05:23:54.082Z,63.50
2019-04-23T05:26:26.955Z,63.60
2019-04-23T05:29:06.223Z,63.60
2019-04-23T05:34:00.302Z,63.70
2019-04-23T05:39:12.176Z,64.10
2019-04-23T05:44:02.010Z,63.80
2019-04-23T05:46:33.805Z,64.00
2019-04-23T05:48:59.525Z,63.90
2019-04-23T05:51:40.124Z,63.80
2019-04-23T05:56:36.880Z,63.80
2019-04-23T05:59:08.773Z,63.70
2019-04-23T06:04:14.081Z,63.50
2019-04-23T06:06:45.245Z,63.50
2019-04-23T06:11:55.528Z,63.60
2019-04-23T06:14:11.425Z,63.50
2019-04-23T06:16:41.510Z,63.40
2019-04-23T06:19:14.119Z,63.20
2019-04-23T06:21:56.205Z,63.10
2019-04-23T06:24:21.765Z,62.80
2019-04-23T06:26:45.494Z,63.20
2019-04-23T06:29:22.518Z,63.20
2019-04-23T06:39:15.956Z,62.70
2019-04-23T06:41:52.721Z,62.60
2019-04-23T06:44:25.490Z,62.90
2019-04-23T06:46:56.948Z,62.60
2019-04-23T06:49:27.101Z,62.60
2019-04-23T06:52:07.070Z,62.10
2019-04-23T06:57:11.872Z,62.20
2019-04-23T07:02:09.959Z,62.20
2019-04-23T07:04:34.295Z,62.00
2019-04-23T07:07:25.537Z,62.00
2019-04-23T07:09:26.018Z,61.80
2019-04-23T07:12:05.242Z,61.60
2019-04-23T07:14:44.285Z,61.50
2019-04-23T07:17:04.238Z,61.50
2019-04-23T07:22:12.916Z,61.40
2019-04-23T07:24:43.667Z,61.40
2019-04-23T07:27:11.739Z,61.20
2019-04-23T07:29:41.698Z,60.90
2019-04-23T07:32:11.858Z,60.80
2019-04-23T07:34:49.492Z,61.10
2019-04-23T07:37:15.582Z,61.20
2019-04-23T07:40:11.256Z,61.30
2019-04-23T07:42:42.103Z,61.10
2019-04-23T07:45:27.994Z,61.10
2019-04-23T07:48:10.870Z,61.10
2019-04-23T08:05:57.436Z,59.60
2019-04-23T08:08:11.680Z,59.60
2019-04-23T08:11:30.774Z,59.10
2019-04-23T08:13:52.359Z,59.50
2019-04-23T08:16:23.374Z,59.20
2019-04-23T08:18:49.773Z,59.70
2019-04-23T08:21:15.144Z,59.50
2019-04-23T08:23:56.968Z,59.50
2019-04-23T08:26:52.073Z,59.30
2019-04-23T08:29:13.931Z,59.20
2019-04-23T08:31:52.005Z,59.00
2019-04-23T08:34:23.900Z,59.00
2019-04-23T08:36:51.849Z,58.70
2019-04-23T08:39:23.176Z,58.30
2019-04-23T08:44:27.317Z,58.10
2019-04-23T08:49:45.260Z,58.30
2019-04-23T08:54:56.806Z,59.10
2019-04-23T08:57:08.855Z,58.90
2019-04-23T09:07:16.534Z,59.50
2019-04-23T09:12:19.612Z,59.40
2019-04-23T09:14:44.992Z,59.70
2019-04-23T09:17:20.809Z,59.70
2019-04-23T09:20:06.038Z,60.40
2019-04-23T09:22:22.377Z,60.00
2019-04-23T09:27:38.145Z,59.70
2019-04-23T09:30:00.771Z,59.80
2019-04-23T09:35:06.239Z,59.50
2019-04-23T09:37:39.077Z,59.80
2019-04-23T09:40:13.998Z,59.60
2019-04-23T09:43:00.604Z,59.30
2019-04-23T09:45:29.976Z,59.30
2019-04-23T09:48:04.805Z,60.00
2019-04-23T09:50:29.768Z,59.30
2019-04-23T09:55:38.801Z,59.30
2019-04-23T10:03:01.530Z,57.30
2019-04-23T10:05:29.132Z,56.80
2019-04-23T10:07:54.392Z,56.70
2019-04-23T10:10:18.444Z,56.70
2019-04-23T10:12:48.212Z,56.90
2019-04-23T10:15:25.026Z,56.70
2019-04-23T10:17:51.944Z,56.20
2019-04-23T10:20:22.539Z,56.30
2019-04-23T10:22:52.593Z,55.80
2019-04-23T10:25:22.747Z,55.80
2019-04-23T10:27:58.544Z,55.80
2019-04-23T10:30:23.769Z,56.20
2019-04-23T10:32:55.726Z,55.50
2019-04-23T10:35:37.359Z,55.80
2019-04-23T10:38:03.734Z,55.80
2019-04-23T10:40:32.564Z,56.10
2019-04-23T10:43:01.230Z,55.20
2019-04-23T10:46:07.961Z,56.20
2019-04-23T10:48:49.933Z,55.80
2019-04-23T10:51:33.801Z,55.30
2019-04-23T10:54:03.101Z,55.30
2019-04-23T10:56:34.758Z,55.20
2019-04-23T10:58:54.465Z,55.20
2019-04-23T11:01:39.151Z,55.20
2019-04-23T11:06:42.763Z,55.00
2019-04-23T11:09:27.759Z,54.90
2019-04-23T11:11:48.327Z,54.80
2019-04-23T11:14:23.157Z,54.30
2019-04-23T11:16:56.575Z,54.70
2019-04-23T11:19:23.598Z,54.50
2019-04-23T11:21:58.477Z,54.70
2019-04-23T11:24:32.509Z,55.60
2019-04-23T11:26:51.533Z,54.10
2019-04-23T11:29:27.959Z,54.70
2019-04-23T11:32:13.405Z,55.30
2019-04-23T11:37:12.386Z,54.70
2019-04-23T11:38:06.994Z,54.20
2019-04-23T11:39:31.140Z,54.70
2019-04-23T11:42:05.174Z,54.10
2019-04-23T11:44:52.953Z,53.50
2019-04-23T11:47:04.247Z,53.40
2019-04-23T11:50:13.867Z,53.60
2019-04-23T11:52:07.925Z,53.80
2019-04-23T11:54:36.045Z,53.80
2019-04-23T11:59:47.209Z,53.50
2019-04-23T12:02:12.020Z,53.30
2019-04-23T12:05:05.484Z,53.10
2019-04-23T12:07:32.825Z,52.90
2019-04-23T12:10:06.118Z,52.90
2019-04-23T12:15:03.558Z,52.80
2019-04-23T12:17:51.203Z,53.00
2019-04-23T12:20:27.158Z,53.30
2019-04-23T12:23:08.960Z,52.90
2019-04-23T12:25:27.541Z,53.90
2019-04-23T12:27:42.186Z,53.40
2019-04-23T12:30:33.923Z,53.30
2019-04-23T12:35:25.850Z,53.70
2019-04-23T12:38:08.941Z,53.40
2019-04-23T12:43:12.705Z,52.80
2019-04-23T12:48:15.229Z,52.20
2019-04-23T12:50:50.101Z,52.20
2019-04-23T12:55:43.787Z,52.40
2019-04-23T12:58:17.864Z,52.20
2019-04-23T13:03:16.757Z,51.70
2019-04-23T13:05:35.939Z,51.90
2019-04-23T13:08:26.894Z,51.50
2019-04-23T13:10:45.351Z,51.70
2019-04-23T13:13:23.514Z,51.40
2019-04-23T13:15:48.099Z,51.60
2019-04-23T13:18:23.896Z,51.30
2019-04-23T13:20:44.425Z,51.50
2019-04-23T13:26:06.118Z,51.10
2019-04-23T13:28:40.205Z,50.80
2019-04-23T13:33:44.281Z,51.20
2019-04-23T13:36:18.864Z,51.40
2019-04-23T13:38:45.140Z,51.20
2019-04-23T13:41:23.483Z,51.20
2019-04-23T13:46:32.995Z,51.30
2019-04-23T13:48:41.922Z,51.40
2019-04-23T13:51:20.803Z,51.90
2019-04-23T13:56:24.786Z,51.70
2019-04-23T13:58:54.908Z,52.10
2019-04-23T14:04:11.948Z,51.70
2019-04-23T14:06:35.002Z,51.90
2019-04-23T14:16:48.358Z,52.90
2019-04-23T14:19:02.457Z,52.50
2019-04-23T14:21:30.884Z,53.10
2019-04-23T14:24:22.826Z,53.60
2019-04-23T14:26:38.312Z,53.30
2019-04-23T14:29:04.077Z,52.40
2019-04-23T14:31:36.830Z,52.60
2019-04-23T14:36:42.543Z,53.30
2019-04-23T14:39:15.746Z,53.30
2019-04-23T14:41:45.006Z,53.90
2019-04-23T14:44:12.865Z,53.30
2019-04-23T14:46:49.861Z,53.40
2019-04-23T14:52:00.421Z,53.30
2019-04-23T14:55:19.928Z,53.20
2019-04-23T14:57:24.762Z,53.70
2019-04-23T14:59:34.680Z,53.30
2019-04-23T15:02:12.505Z,53.20
2019-04-23T15:04:39.796Z,54.70
2019-04-23T15:07:18.842Z,53.40
2019-04-23T15:10:08.534Z,53.40
2019-04-23T15:12:30.430Z,53.30
2019-04-23T15:14:59.922Z,52.40
2019-04-23T15:17:28.858Z,52.30
2019-04-23T15:20:15.316Z,52.10
2019-04-23T15:25:25.720Z,51.80
2019-04-23T15:29:58.298Z,51.60
2019-04-23T15:32:45.300Z,51.50
2019-04-23T15:35:25.356Z,51.40
2019-04-23T15:37:58.360Z,51.30
2019-04-23T15:50:15.737Z,52.00
2019-04-23T15:52:54.943Z,52.40
2019-04-23T15:55:12.204Z,52.30
2019-04-23T15:58:01.024Z,52.90
2019-04-23T16:00:12.777Z,52.60
2019-04-23T16:02:20.232Z,52.60
2019-04-23T16:04:49.416Z,52.80
2019-04-23T16:07:38.957Z,52.90
2019-04-23T16:12:51.914Z,53.50
2019-04-23T16:15:35.811Z,53.20
2019-04-23T16:18:15.765Z,53.30
2019-04-23T16:20:49.171Z,53.60
2019-04-23T16:23:05.717Z,53.30
2019-04-23T16:25:36.334Z,53.50
2019-04-23T16:30:48.114Z,53.50
2019-04-23T16:33:11.119Z,53.50
2019-04-23T16:35:58.510Z,53.90
2019-04-23T16:38:36.312Z,54.30
2019-04-23T16:46:06.152Z,53.90
2019-04-23T16:56:11.490Z,54.20
2019-04-23T16:58:55.105Z,54.60
2019-04-23T17:01:07.251Z,54.40
2019-04-23T17:03:40.162Z,54.40
2019-04-23T17:06:10.544Z,54.90
2019-04-23T17:08:53.899Z,54.70
2019-04-23T17:11:15.178Z,55.20
2019-04-23T17:13:38.022Z,55.00
2019-04-23T17:16:15.198Z,55.00
2019-04-23T17:18:48.822Z,55.50
2019-04-23T17:21:18.149Z,55.40
2019-04-23T17:24:07.922Z,55.70
2019-04-23T17:26:19.042Z,56.00
2019-04-23T17:28:47.513Z,55.80
2019-04-23T17:31:32.801Z,56.10
2019-04-23T17:36:24.637Z,56.00
2019-04-23T17:39:08.168Z,56.40
2019-04-23T17:41:31.326Z,56.60
2019-04-23T17:46:34.158Z,56.60
2019-04-23T17:49:10.872Z,57.40
2019-04-23T17:51:35.069Z,57.80
2019-04-23T17:54:19.480Z,57.60
2019-04-23T17:59:20.583Z,57.80
2019-04-23T18:01:57.200Z,58.00
2019-04-23T18:04:20.577Z,57.80
2019-04-23T18:09:18.445Z,58.80
2019-04-23T18:14:13.229Z,59.20
2019-04-23T18:16:55.991Z,59.90
2019-04-23T18:19:16.598Z,60.30
2019-04-23T18:22:15.532Z,60.80
2019-04-23T18:25:05.755Z,60.80
2019-04-23T18:27:31.400Z,61.00
2019-04-23T18:37:56.381Z,62.20
2019-04-23T18:40:36.744Z,62.00
2019-04-23T18:43:21.530Z,62.30
2019-04-23T18:45:46.725Z,62.20
2019-04-23T18:48:10.020Z,62.40
2019-04-23T18:50:53.703Z,62.70
2019-04-23T18:53:27.969Z,62.50
2019-04-23T18:56:03.110Z,62.50
2019-04-23T18:58:10.538Z,62.60
2019-04-23T19:01:00.111Z,62.70
2019-04-23T19:03:38.918Z,62.80
2019-04-23T19:06:06.985Z,62.60
2019-04-23T19:09:03.186Z,62.50
2019-04-23T19:14:07.988Z,63.70
2019-04-23T19:16:54.896Z,63.90
2019-04-23T19:19:11.728Z,64.40
2019-04-23T19:22:07.003Z,64.50
2019-04-23T19:24:15.856Z,64.70
2019-04-23T19:27:03.315Z,65.10
2019-04-23T19:29:21.194Z,65.30
2019-04-23T19:31:54.071Z,65.60
2019-04-23T19:34:34.069Z,65.80
2019-04-23T19:41:59.372Z,67.40
2019-04-23T19:44:28.763Z,67.60
2019-04-23T19:49:31.653Z,68.10
2019-04-23T19:51:57.702Z,67.80
2019-04-23T19:54:34.015Z,68.00
2019-04-23T19:56:56.796Z,68.30
2019-04-23T19:59:43.193Z,68.60
2019-04-23T20:02:00.226Z,68.70
2019-04-23T20:04:39.426Z,68.70
2019-04-23T20:07:12.347Z,68.70
2019-04-23T20:09:43.142Z,68.80
2019-04-23T20:14:41.784Z,68.80
2019-04-23T20:17:23.455Z,68.40
2019-04-23T20:19:44.938Z,68.00
2019-04-23T20:27:13.892Z,68.10
2019-04-23T20:30:15.832Z,68.30
2019-04-23T20:38:02.277Z,68.90
2019-04-23T20:40:11.478Z,68.90
2019-04-23T20:42:34.750Z,68.70
2019-04-23T20:45:08.363Z,68.50
2019-04-23T20:47:37.137Z,68.10
2019-04-23T20:49:58.458Z,68.50
2019-04-23T20:52:33.906Z,68.30
2019-04-23T20:55:08.325Z,68.60
2019-04-23T21:00:12.080Z,69.00
2019-04-23T21:10:37.446Z,69.90
2019-04-23T21:18:15.402Z,70.30
2019-04-23T21:20:37.034Z,70.10
2019-04-23T21:23:08.952Z,70.20
2019-04-23T21:28:26.691Z,69.70
2019-04-23T21:33:30.094Z,69.90
2019-04-23T21:36:15.631Z,69.20
2019-04-23T21:41:29.885Z,69.10
2019-04-23T21:46:20.463Z,68.50
2019-04-23T21:49:14.933Z,68.20
2019-04-23T21:53:51.789Z,68.50
2019-04-23T21:56:23.890Z,68.80
2019-04-23T21:58:59.932Z,68.80
2019-04-23T22:01:33.273Z,69.10
2019-04-23T22:06:41.309Z,68.10
2019-04-23T22:09:08.798Z,67.50
2019-04-23T22:14:10.239Z,66.60
2019-04-23T22:16:40.925Z,66.40
2019-04-23T22:21:45.344Z,65.80
2019-04-23T22:24:07.258Z,65.80
2019-04-23T22:29:14.246Z,65.20
2019-04-23T22:36:48.265Z,64.70
2019-04-23T22:39:09.712Z,64.70
2019-04-23T22:41:50.428Z,64.60
2019-04-23T22:44:32.489Z,64.80
2019-04-23T22:46:52.466Z,64.90
2019-04-23T22:49:38.891Z,64.30
2019-04-23T22:52:06.001Z,64.90
2019-04-23T22:54:31.866Z,65.10
2019-04-23T22:56:54.561Z,64.90
2019-04-23T23:02:41.654Z,65.00
2019-04-23T23:04:54.571Z,65.10
2019-04-23T23:07:20.176Z,65.50
2019-04-23T23:09:54.248Z,65.50
2019-04-23T23:12:22.988Z,65.80
2019-04-23T23:14:54.181Z,65.90
2019-04-23T23:17:24.116Z,65.90
2019-04-23T23:20:03.537Z,65.90
2019-04-23T23:22:18.351Z,66.10
2019-04-23T23:24:57.198Z,66.00
2019-04-23T23:27:23.727Z,66.10
2019-04-23T23:30:05.251Z,66.10
2019-04-23T23:37:28.512Z,66.50
2019-04-23T23:40:11.317Z,66.40
2019-04-23T23:42:34.712Z,66.40
2019-04-23T23:45:14.474Z,66.50
2019-04-23T23:47:37.630Z,66.60
2019-04-23T23:50:15.946Z,66.40
2019-04-23T23:52:40.985Z,66.40
2019-04-23T23:55:12.726Z,66.60
2019-04-23T23:57:30.483Z,66.70
